createdAt,value
2023-05-04T00:00:32.233Z,9.00
2023-05-04T00:02:58.885Z,8.90
2023-05-04T00:05:25.660Z,9.00
2023-05-04T00:07:52.397Z,8.90
2023-05-04T00:10:19.182Z,8.90
2023-05-04T00:12:46.413Z,8.90
2023-05-04T00:15:13.148Z,8.90
2023-05-04T00:17:40.066Z,8.90
2023-05-04T00:20:07.232Z,8.90
2023-05-04T00:22:33.892Z,8.90
2023-05-04T00:25:00.544Z,8.90
2023-05-04T00:27:27.152Z,8.90
2023-05-04T00:29:54.046Z,8.90
2023-05-04T00:32:21.083Z,8.90
2023-05-04T00:34:48.411Z,8.90
2023-05-04T00:37:15.081Z,8.90
2023-05-04T00:39:41.755Z,8.90
2023-05-04T00:42:08.379Z,8.90
2023-05-04T00:44:35.362Z,8.90
2023-05-04T00:47:02.274Z,8.90
2023-05-04T00:49:28.973Z,8.90
2023-05-04T00:51:55.603Z,8.90
2023-05-04T00:54:22.235Z,8.80
2023-05-04T00:56:48.913Z,8.80
2023-05-04T00:59:15.595Z,8.80
2023-05-04T01:01:42.174Z,8.80
2023-05-04T01:04:09.005Z,8.80
2023-05-04T01:06:38.693Z,8.80
2023-05-04T01:09:11.363Z,8.80
2023-05-04T01:11:42.989Z,8.80
2023-05-04T01:14:10.092Z,8.80
2023-05-04T01:16:36.792Z,8.80
2023-05-04T01:19:03.990Z,8.80
2023-05-04T01:21:31.035Z,8.80
2023-05-04T01:23:58.004Z,8.80
2023-05-04T01:26:25.632Z,8.80
2023-05-04T01:28:57.182Z,8.80
2023-05-04T01:31:23.976Z,8.80
2023-05-04T01:33:51.831Z,8.80
2023-05-04T01:36:19.280Z,8.80
2023-05-04T01:38:47.420Z,8.80
2023-05-04T01:41:14.081Z,8.80
2023-05-04T01:43:40.733Z,8.80
2023-05-04T01:46:07.363Z,8.80
2023-05-04T01:48:34.033Z,8.80
2023-05-04T01:51:00.645Z,8.80
2023-05-04T01:53:27.643Z,8.80
2023-05-04T01:55:54.343Z,8.90
2023-05-04T01:58:21.072Z,8.90
2023-05-04T02:00:47.689Z,8.90
2023-05-04T02:03:14.390Z,8.90
2023-05-04T02:05:41.169Z,8.90
2023-05-04T02:08:07.908Z,8.90
2023-05-04T02:10:34.921Z,8.90
2023-05-04T02:13:01.709Z,8.90
2023-05-04T02:15:28.409Z,9.00
2023-05-04T02:17:55.382Z,9.00
2023-05-04T02:20:22.055Z,9.00
2023-05-04T02:22:48.697Z,9.10
2023-05-04T02:25:15.931Z,9.10
2023-05-04T02:27:42.532Z,9.10
2023-05-04T02:30:09.403Z,9.10
2023-05-04T02:32:36.492Z,9.00
2023-05-04T02:35:03.298Z,9.00
2023-05-04T02:37:29.931Z,9.00
2023-05-04T02:39:56.588Z,9.00
2023-05-04T02:42:23.189Z,8.90
2023-05-04T02:44:49.786Z,8.80
2023-05-04T02:47:16.775Z,8.80
2023-05-04T02:49:43.453Z,8.80
2023-05-04T02:52:10.205Z,8.70
2023-05-04T02:54:38.461Z,8.70
2023-05-04T02:57:05.323Z,8.70
2023-05-04T02:59:32.008Z,8.70
2023-05-04T03:01:58.662Z,8.70
2023-05-04T03:04:25.457Z,8.70
2023-05-04T03:06:53.319Z,8.80
2023-05-04T03:09:19.984Z,8.80
2023-05-04T03:11:46.623Z,8.70
2023-05-04T03:14:13.263Z,8.80
2023-05-04T03:16:39.940Z,8.80
2023-05-04T03:19:06.716Z,8.90
2023-05-04T03:21:33.385Z,8.80
2023-05-04T03:24:00.026Z,8.80
2023-05-04T03:26:26.675Z,8.80
2023-05-04T03:28:53.409Z,8.90
2023-05-04T03:31:20.028Z,8.90
2023-05-04T03:33:46.666Z,8.90
2023-05-04T03:36:13.553Z,8.90
2023-05-04T03:38:40.166Z,9.00
2023-05-04T03:41:06.822Z,9.00
2023-05-04T03:43:33.482Z,9.00
2023-05-04T03:46:00.206Z,9.10
2023-05-04T03:48:26.920Z,9.10
2023-05-04T03:50:53.498Z,9.10
2023-05-04T03:53:20.117Z,9.10
2023-05-04T03:55:46.813Z,9.10
2023-05-04T03:58:13.568Z,9.20
2023-05-04T04:00:40.180Z,9.20
2023-05-04T04:03:06.968Z,9.20
2023-05-04T04:05:33.637Z,9.20
2023-05-04T04:08:00.269Z,9.20
2023-05-04T04:10:26.933Z,9.20
2023-05-04T04:12:53.565Z,9.30
2023-05-04T04:15:20.293Z,9.30
2023-05-04T04:17:46.958Z,9.30
2023-05-04T04:20:13.974Z,9.40
2023-05-04T04:22:40.608Z,9.40
2023-05-04T04:25:07.708Z,9.40
2023-05-04T04:27:34.706Z,9.40
2023-05-04T04:30:01.412Z,9.40
2023-05-04T04:32:29.143Z,9.40
2023-05-04T04:34:55.961Z,9.50
2023-05-04T04:37:22.565Z,9.50
2023-05-04T04:39:49.163Z,9.60
2023-05-04T04:42:15.839Z,9.60
2023-05-04T04:44:43.014Z,9.60
2023-05-04T04:47:09.660Z,9.60
2023-05-04T04:49:36.333Z,9.60
2023-05-04T04:52:03.940Z,9.70
2023-05-04T04:54:31.689Z,9.70
2023-05-04T04:56:59.509Z,9.80
2023-05-04T04:59:26.430Z,9.90
2023-05-04T05:01:53.017Z,9.90
2023-05-04T05:04:19.959Z,10.00
2023-05-04T05:06:47.815Z,10.10
2023-05-04T05:09:14.547Z,10.10
2023-05-04T05:11:41.172Z,10.20
2023-05-04T05:14:07.971Z,10.20
2023-05-04T05:16:34.671Z,10.20
2023-05-04T05:19:01.336Z,10.30
2023-05-04T05:21:28.102Z,10.30
2023-05-04T05:23:54.778Z,10.40
2023-05-04T05:26:21.708Z,10.40
2023-05-04T05:28:48.439Z,10.50
2023-05-04T05:31:15.115Z,10.50
2023-05-04T05:33:41.825Z,10.50
2023-05-04T05:36:08.541Z,10.60
2023-05-04T05:38:35.504Z,10.60
2023-05-04T05:41:02.120Z,10.60
2023-05-04T05:43:28.854Z,10.70
2023-05-04T05:45:55.513Z,10.80
2023-05-04T05:48:22.137Z,10.90
2023-05-04T05:50:48.809Z,10.90
2023-05-04T05:53:15.494Z,11.00
2023-05-04T05:55:42.130Z,11.00
2023-05-04T05:58:08.826Z,11.10
2023-05-04T06:00:35.667Z,11.20
2023-05-04T06:03:02.490Z,11.20
2023-05-04T06:05:29.276Z,11.30
2023-05-04T06:07:55.935Z,11.40
2023-05-04T06:10:22.649Z,11.40
2023-05-04T06:12:49.310Z,11.50
2023-05-04T06:15:16.478Z,11.50
2023-05-04T06:17:43.113Z,11.60
2023-05-04T06:20:10.095Z,11.70
2023-05-04T06:22:39.684Z,11.70
2023-05-04T06:25:08.262Z,11.70
2023-05-04T06:27:35.689Z,11.90
2023-05-04T06:30:02.432Z,12.00
2023-05-04T06:32:29.300Z,12.00
2023-05-04T06:34:56.359Z,12.10
2023-05-04T06:37:23.321Z,12.20
2023-05-04T06:39:50.058Z,12.20
2023-05-04T06:42:16.962Z,12.30
2023-05-04T06:44:43.754Z,12.40
2023-05-04T06:47:10.587Z,12.40
2023-05-04T06:49:37.180Z,12.50
2023-05-04T06:52:03.867Z,12.60
2023-05-04T06:54:31.896Z,12.60
2023-05-04T06:56:59.146Z,12.60
2023-05-04T06:59:25.792Z,12.70
2023-05-04T07:01:52.384Z,12.70
2023-05-04T07:04:23.436Z,12.70
2023-05-04T07:06:50.516Z,12.70
2023-05-04T07:09:18.605Z,12.80
2023-05-04T07:11:45.323Z,12.90
2023-05-04T07:14:12.124Z,13.00
2023-05-04T07:16:38.816Z,13.20
2023-05-04T07:19:05.639Z,13.40
2023-05-04T07:21:32.405Z,13.60
2023-05-04T07:23:59.117Z,13.70
2023-05-04T07:26:25.978Z,13.80
2023-05-04T07:28:52.630Z,13.80
2023-05-04T07:31:19.260Z,13.80
2023-05-04T07:33:45.948Z,13.80
2023-05-04T07:36:12.634Z,13.80
2023-05-04T07:38:39.563Z,14.10
2023-05-04T07:41:07.528Z,14.10
2023-05-04T07:43:34.093Z,14.10
2023-05-04T07:46:01.623Z,14.00
2023-05-04T07:48:28.363Z,13.90
2023-05-04T07:50:54.985Z,13.80
2023-05-04T07:53:22.006Z,13.70
2023-05-04T07:55:48.826Z,13.60
2023-05-04T07:58:16.836Z,13.50
2023-05-04T08:00:43.729Z,13.50
2023-05-04T08:03:10.605Z,13.40
2023-05-04T08:05:37.409Z,13.40
2023-05-04T08:08:04.225Z,13.40
2023-05-04T08:10:30.986Z,13.60
2023-05-04T08:12:57.846Z,13.80
2023-05-04T08:15:24.525Z,13.90
2023-05-04T08:17:51.709Z,14.10
2023-05-04T08:20:18.597Z,14.30
2023-05-04T08:22:45.702Z,14.30
2023-05-04T08:25:12.676Z,14.40
2023-05-04T08:27:39.383Z,14.40
2023-05-04T08:30:06.514Z,14.60
2023-05-04T08:32:33.394Z,14.70
2023-05-04T08:35:00.139Z,14.70
2023-05-04T08:37:26.795Z,14.60
2023-05-04T08:39:53.534Z,14.60
2023-05-04T08:42:29.713Z,14.70
2023-05-04T08:44:57.243Z,14.70
2023-05-04T08:47:24.554Z,14.90
2023-05-04T08:49:53.061Z,15.00
2023-05-04T08:52:21.179Z,15.10
2023-05-04T08:54:48.035Z,15.20
2023-05-04T08:57:14.994Z,15.10
2023-05-04T08:59:42.551Z,15.10
2023-05-04T09:02:09.554Z,15.10
2023-05-04T09:04:36.238Z,15.00
2023-05-04T09:07:03.451Z,15.10
2023-05-04T09:09:31.333Z,15.20
2023-05-04T09:11:59.051Z,15.30
2023-05-04T09:14:32.034Z,15.20
2023-05-04T09:16:59.087Z,15.10
2023-05-04T09:19:33.180Z,15.20
2023-05-04T09:22:00.940Z,15.20
2023-05-04T09:24:28.003Z,15.30
2023-05-04T09:26:54.698Z,15.40
2023-05-04T09:29:23.918Z,15.40
2023-05-04T09:31:54.230Z,15.50
2023-05-04T09:34:21.529Z,15.80
2023-05-04T09:37:01.857Z,16.10
2023-05-04T09:39:29.084Z,16.40
2023-05-04T09:41:56.869Z,16.50
2023-05-04T09:44:24.132Z,16.60
2023-05-04T09:47:00.463Z,16.70
2023-05-04T09:49:33.748Z,16.90
2023-05-04T09:52:03.350Z,17.00
2023-05-04T09:54:32.479Z,17.10
2023-05-04T09:57:02.581Z,17.10
2023-05-04T09:59:30.728Z,17.30
2023-05-04T10:02:07.625Z,17.40
2023-05-04T10:04:41.056Z,17.60
2023-05-04T10:07:10.782Z,17.60
2023-05-04T10:09:37.649Z,17.60
2023-05-04T10:12:07.359Z,17.60
2023-05-04T10:14:36.950Z,17.60
2023-05-04T10:17:09.146Z,17.60
2023-05-04T10:19:36.944Z,17.60
2023-05-04T10:22:22.603Z,17.70
2023-05-04T10:25:07.351Z,17.80
2023-05-04T10:27:40.163Z,18.00
2023-05-04T10:30:07.638Z,17.90
2023-05-04T10:32:40.100Z,17.90
2023-05-04T10:35:07.580Z,18.10
2023-05-04T10:37:34.536Z,18.30
2023-05-04T10:40:01.222Z,18.20
2023-05-04T10:42:29.020Z,18.20
2023-05-04T10:44:56.258Z,18.20
2023-05-04T10:47:32.948Z,18.20
2023-05-04T10:50:04.156Z,18.50
2023-05-04T10:52:49.666Z,18.60
2023-05-04T10:55:16.403Z,18.60
2023-05-04T10:57:49.877Z,18.60
2023-05-04T11:00:16.694Z,18.80
2023-05-04T11:02:43.402Z,19.10
2023-05-04T11:05:15.833Z,18.90
2023-05-04T11:07:42.587Z,19.00
2023-05-04T11:10:09.748Z,19.10
2023-05-04T11:12:37.480Z,19.20
2023-05-04T11:15:07.863Z,19.00
2023-05-04T11:17:34.838Z,18.90
2023-05-04T11:20:01.627Z,18.70
2023-05-04T11:22:28.332Z,18.70
2023-05-04T11:24:56.245Z,18.70
2023-05-04T11:27:23.396Z,18.70
2023-05-04T11:29:56.704Z,18.80
2023-05-04T11:32:32.605Z,18.80
2023-05-04T11:34:59.404Z,18.70
2023-05-04T11:37:28.245Z,18.60
2023-05-04T11:39:55.034Z,18.50
2023-05-04T11:42:21.936Z,18.60
2023-05-04T11:44:48.851Z,18.50
2023-05-04T11:47:16.215Z,18.50
2023-05-04T11:49:43.886Z,18.70
2023-05-04T11:52:10.524Z,18.70
2023-05-04T11:54:37.296Z,18.70
2023-05-04T11:57:04.413Z,18.80
2023-05-04T11:59:31.361Z,18.80
2023-05-04T12:01:57.938Z,19.00
2023-05-04T12:04:24.767Z,18.80
2023-05-04T12:06:51.440Z,18.70
2023-05-04T12:09:18.050Z,18.60
2023-05-04T12:11:53.104Z,18.50
2023-05-04T12:14:20.725Z,18.40
2023-05-04T12:16:54.040Z,18.40
2023-05-04T12:19:20.846Z,18.10
2023-05-04T12:21:53.595Z,18.00
2023-05-04T12:24:23.737Z,17.90
2023-05-04T12:26:50.776Z,17.80
2023-05-04T12:29:17.796Z,17.90
2023-05-04T12:31:44.439Z,17.90
2023-05-04T12:34:11.371Z,18.10
2023-05-04T12:36:38.045Z,18.20
2023-05-04T12:39:04.688Z,18.60
2023-05-04T12:41:31.628Z,19.60
2023-05-04T12:43:58.421Z,19.90
2023-05-04T12:46:25.113Z,20.20
2023-05-04T12:48:51.822Z,20.00
2023-05-04T12:51:18.449Z,19.90
2023-05-04T12:53:45.153Z,19.70
2023-05-04T12:56:12.074Z,19.40
2023-05-04T12:58:38.800Z,19.00
2023-05-04T13:01:05.400Z,18.80
2023-05-04T13:03:32.184Z,18.60
2023-05-04T13:05:58.922Z,18.40
2023-05-04T13:08:25.723Z,18.20
2023-05-04T13:10:52.404Z,18.00
2023-05-04T13:13:19.282Z,17.80
2023-05-04T13:15:49.513Z,17.60
2023-05-04T13:18:16.306Z,17.50
2023-05-04T13:20:42.895Z,17.40
2023-05-04T13:23:09.622Z,17.50
2023-05-04T13:25:36.370Z,17.90
2023-05-04T13:28:03.495Z,18.00
2023-05-04T13:30:30.138Z,17.90
2023-05-04T13:32:56.895Z,17.90
2023-05-04T13:35:23.884Z,18.10
2023-05-04T13:37:50.998Z,18.80
2023-05-04T13:40:17.901Z,19.90
2023-05-04T13:42:44.646Z,20.70
2023-05-04T13:45:11.739Z,21.40
2023-05-04T13:47:39.979Z,21.50
2023-05-04T13:50:07.222Z,21.60
2023-05-04T13:52:33.819Z,21.90
2023-05-04T13:55:00.384Z,22.20
2023-05-04T13:57:27.882Z,22.20
2023-05-04T14:00:05.862Z,22.30
2023-05-04T14:02:33.965Z,22.60
2023-05-04T14:05:01.379Z,22.50
2023-05-04T14:07:28.018Z,21.90
2023-05-04T14:09:55.537Z,21.70
2023-05-04T14:12:22.249Z,22.00
2023-05-04T14:14:50.590Z,22.30
2023-05-04T14:17:17.528Z,22.50
2023-05-04T14:19:44.425Z,22.40
2023-05-04T14:22:11.100Z,22.50
2023-05-04T14:24:37.742Z,23.10
2023-05-04T14:27:04.374Z,23.90
2023-05-04T14:29:32.264Z,24.40
2023-05-04T14:31:59.118Z,25.10
2023-05-04T14:34:28.596Z,25.50
2023-05-04T14:36:55.409Z,25.90
2023-05-04T14:39:22.506Z,25.80
2023-05-04T14:41:49.199Z,25.70
2023-05-04T14:44:15.950Z,25.20
2023-05-04T14:46:42.642Z,25.00
2023-05-04T14:49:10.115Z,25.10
2023-05-04T14:51:38.138Z,24.90
2023-05-04T14:54:05.103Z,25.40
2023-05-04T14:56:31.810Z,25.50
2023-05-04T14:59:01.219Z,25.50
2023-05-04T15:01:28.031Z,26.20
2023-05-04T15:03:56.424Z,27.00
2023-05-04T15:06:23.661Z,27.10
2023-05-04T15:08:50.281Z,27.10
2023-05-04T15:11:18.748Z,26.80
2023-05-04T15:13:46.253Z,26.10
2023-05-04T15:16:16.867Z,25.90
2023-05-04T15:18:43.591Z,25.80
2023-05-04T15:21:10.669Z,26.20
2023-05-04T15:23:37.291Z,26.30
2023-05-04T15:26:04.476Z,26.60
2023-05-04T15:28:31.139Z,26.30
2023-05-04T15:30:58.791Z,26.20
2023-05-04T15:33:25.604Z,26.60
2023-05-04T15:35:52.277Z,26.20
2023-05-04T15:38:19.028Z,25.60
2023-05-04T15:40:45.661Z,25.20
2023-05-04T15:43:12.280Z,25.10
2023-05-04T15:45:39.035Z,25.70
2023-05-04T15:48:05.795Z,26.10
2023-05-04T15:50:33.192Z,26.30
2023-05-04T15:53:00.014Z,26.60
2023-05-04T15:55:26.868Z,27.10
2023-05-04T15:57:54.054Z,28.30
2023-05-04T16:00:21.281Z,29.40
2023-05-04T16:02:48.153Z,29.30
2023-05-04T16:05:16.806Z,28.90
2023-05-04T16:07:44.179Z,28.60
2023-05-04T16:10:11.085Z,28.30
2023-05-04T16:12:41.369Z,28.70
2023-05-04T16:15:08.275Z,29.40
2023-05-04T16:17:35.641Z,29.70
2023-05-04T16:20:03.155Z,30.00
2023-05-04T16:22:30.251Z,29.90
2023-05-04T16:24:56.985Z,29.90
2023-05-04T16:27:24.160Z,30.00
2023-05-04T16:29:51.080Z,30.60
2023-05-04T16:32:17.673Z,31.10
2023-05-04T16:34:44.283Z,31.30
2023-05-04T16:37:11.640Z,31.30
2023-05-04T16:39:41.531Z,31.50
2023-05-04T16:42:08.215Z,31.60
2023-05-04T16:44:35.047Z,31.70
2023-05-04T16:47:01.701Z,31.80
2023-05-04T16:49:28.998Z,31.60
2023-05-04T16:51:55.695Z,31.20
2023-05-04T16:54:23.221Z,30.10
2023-05-04T16:56:49.994Z,30.40
2023-05-04T16:59:16.884Z,29.30
2023-05-04T17:01:43.632Z,29.20
2023-05-04T17:04:10.878Z,28.20
2023-05-04T17:06:37.930Z,28.60
2023-05-04T17:09:04.814Z,29.10
2023-05-04T17:11:31.726Z,29.40
2023-05-04T17:13:59.308Z,28.60
2023-05-04T17:16:26.076Z,27.90
2023-05-04T17:18:52.727Z,27.00
2023-05-04T17:21:19.897Z,26.20
2023-05-04T17:23:46.539Z,25.20
2023-05-04T17:26:13.232Z,24.40
2023-05-04T17:28:39.901Z,23.90
2023-05-04T17:31:09.495Z,23.60
2023-05-04T17:33:36.140Z,23.20
2023-05-04T17:36:03.963Z,22.90
2023-05-04T17:38:30.732Z,22.30
2023-05-04T17:40:57.452Z,21.90
2023-05-04T17:43:24.094Z,21.60
2023-05-04T17:45:52.004Z,21.20
2023-05-04T17:48:19.816Z,20.60
2023-05-04T17:50:46.535Z,20.10
2023-05-04T17:53:13.171Z,19.80
2023-05-04T17:55:39.981Z,19.60
2023-05-04T17:58:06.741Z,19.20
2023-05-04T18:00:33.483Z,19.00
2023-05-04T18:03:00.433Z,18.80
2023-05-04T18:05:27.200Z,18.70
2023-05-04T18:07:53.865Z,18.60
2023-05-04T18:10:20.509Z,18.50
2023-05-04T18:12:47.558Z,18.40
2023-05-04T18:15:14.147Z,18.40
2023-05-04T18:17:40.999Z,18.40
2023-05-04T18:20:12.660Z,18.40
2023-05-04T18:22:39.519Z,18.40
2023-05-04T18:25:06.469Z,18.30
2023-05-04T18:27:33.686Z,18.10
2023-05-04T18:30:00.919Z,18.00
2023-05-04T18:32:27.793Z,17.90
2023-05-04T18:34:54.729Z,17.70
2023-05-04T18:37:21.769Z,17.70
2023-05-04T18:39:48.406Z,17.60
2023-05-04T18:42:15.117Z,17.50
2023-05-04T18:44:41.734Z,17.50
2023-05-04T18:47:08.640Z,17.40
2023-05-04T18:49:35.256Z,17.40
2023-05-04T18:52:01.929Z,17.30
2023-05-04T18:54:32.028Z,17.30
2023-05-04T18:56:59.139Z,17.20
2023-05-04T18:59:25.815Z,17.10
2023-05-04T19:01:53.836Z,17.10
2023-05-04T19:04:20.928Z,17.00
2023-05-04T19:06:51.718Z,16.80
2023-05-04T19:09:18.862Z,16.60
2023-05-04T19:11:48.438Z,16.50
2023-05-04T19:14:15.573Z,16.40
2023-05-04T19:16:42.279Z,16.30
2023-05-04T19:19:09.319Z,16.30
2023-05-04T19:21:36.169Z,16.20
2023-05-04T19:24:02.952Z,16.10
2023-05-04T19:26:29.578Z,16.10
2023-05-04T19:28:56.260Z,16.00
2023-05-04T19:31:23.509Z,16.00
2023-05-04T19:33:50.189Z,15.90
2023-05-04T19:36:17.191Z,15.90
2023-05-04T19:38:43.994Z,15.80
2023-05-04T19:41:10.672Z,15.70
2023-05-04T19:43:38.842Z,15.70
2023-05-04T19:46:05.589Z,15.70
2023-05-04T19:48:32.892Z,15.60
2023-05-04T19:50:59.679Z,15.60
2023-05-04T19:53:26.785Z,15.50
2023-05-04T19:55:53.564Z,15.40
2023-05-04T19:58:21.839Z,15.40
2023-05-04T20:00:48.809Z,15.40
2023-05-04T20:03:16.971Z,15.30
2023-05-04T20:05:43.684Z,15.20
2023-05-04T20:08:10.864Z,15.10
2023-05-04T20:10:37.602Z,15.00
2023-05-04T20:13:05.539Z,15.00
2023-05-04T20:15:32.434Z,15.00
2023-05-04T20:17:59.296Z,14.90
2023-05-04T20:20:26.812Z,14.90
2023-05-04T20:22:53.680Z,14.90
2023-05-04T20:25:20.432Z,14.80
2023-05-04T20:27:48.699Z,14.80
2023-05-04T20:30:15.649Z,14.80
2023-05-04T20:32:44.097Z,14.70
2023-05-04T20:35:11.157Z,14.70
2023-05-04T20:37:38.040Z,14.70
2023-05-04T20:40:05.102Z,14.60
2023-05-04T20:42:32.446Z,14.50
2023-05-04T20:44:59.119Z,14.50
2023-05-04T20:47:26.438Z,14.40
2023-05-04T20:49:53.072Z,14.40
2023-05-04T20:52:19.755Z,14.40
2023-05-04T20:54:46.789Z,14.30
2023-05-04T20:57:13.512Z,14.30
2023-05-04T20:59:40.417Z,14.30
2023-05-04T21:02:07.847Z,14.30
2023-05-04T21:04:34.469Z,14.30
2023-05-04T21:07:01.387Z,14.20
2023-05-04T21:09:28.212Z,14.20
2023-05-04T21:11:55.025Z,14.20
2023-05-04T21:14:21.780Z,14.20
2023-05-04T21:16:48.712Z,14.20
2023-05-04T21:19:15.364Z,14.10
2023-05-04T21:21:41.996Z,14.10
2023-05-04T21:24:13.186Z,14.10
2023-05-04T21:26:39.964Z,14.10
2023-05-04T21:29:10.081Z,14.00
2023-05-04T21:31:36.689Z,14.10
2023-05-04T21:34:03.465Z,14.00
2023-05-04T21:36:30.195Z,13.90
2023-05-04T21:38:56.835Z,13.90
2023-05-04T21:41:23.566Z,13.90
2023-05-04T21:43:50.224Z,13.90
2023-05-04T21:46:16.967Z,13.80
2023-05-04T21:48:43.659Z,13.70
2023-05-04T21:51:10.334Z,13.70
2023-05-04T21:53:37.081Z,13.60
2023-05-04T21:56:07.774Z,13.60
2023-05-04T21:58:34.842Z,13.60
2023-05-04T22:01:01.579Z,13.60
2023-05-04T22:03:28.523Z,13.50
2023-05-04T22:05:55.614Z,13.50
2023-05-04T22:08:22.338Z,13.50
2023-05-04T22:10:50.286Z,13.40
2023-05-04T22:13:17.192Z,13.40
2023-05-04T22:15:49.784Z,13.40
2023-05-04T22:18:17.433Z,13.40
2023-05-04T22:20:44.130Z,13.40
2023-05-04T22:23:11.078Z,13.30
2023-05-04T22:25:37.756Z,13.30
2023-05-04T22:28:04.490Z,13.30
2023-05-04T22:30:31.337Z,13.20
2023-05-04T22:32:58.069Z,13.20
2023-05-04T22:35:24.677Z,13.20
2023-05-04T22:37:51.268Z,13.20
2023-05-04T22:40:18.144Z,13.20
2023-05-04T22:42:44.997Z,13.30
2023-05-04T22:45:13.036Z,13.30
2023-05-04T22:47:39.972Z,13.20
2023-05-04T22:50:08.748Z,13.30
2023-05-04T22:52:35.751Z,13.30
2023-05-04T22:55:02.502Z,13.40
2023-05-04T22:57:29.631Z,13.40
2023-05-04T22:59:56.663Z,13.40
2023-05-04T23:02:23.541Z,13.40
2023-05-04T23:04:50.665Z,13.40
2023-05-04T23:07:17.365Z,13.40
2023-05-04T23:09:47.162Z,13.40
2023-05-04T23:12:13.892Z,13.40
2023-05-04T23:14:40.764Z,13.40
2023-05-04T23:17:07.862Z,13.40
2023-05-04T23:19:34.788Z,13.40
2023-05-04T23:22:01.407Z,13.40
2023-05-04T23:24:28.011Z,13.50
2023-05-04T23:26:54.716Z,13.40
2023-05-04T23:29:21.372Z,13.40
2023-05-04T23:31:48.164Z,13.40
2023-05-04T23:34:14.869Z,13.40
2023-05-04T23:36:41.862Z,13.40
2023-05-04T23:39:08.638Z,13.40
2023-05-04T23:41:35.226Z,13.40
2023-05-04T23:44:02.065Z,13.30
2023-05-04T23:46:28.771Z,13.30
2023-05-04T23:48:56.126Z,13.30
2023-05-04T23:51:22.801Z,13.30
2023-05-04T23:53:49.458Z,13.30
2023-05-04T23:56:16.129Z,13.30
2023-05-04T23:58:43.044Z,13.30
